sensor_id;sensor_type;location;lat;lon;timestamp;temperature;humidity
15288;DHT22;7745;48.708;9.026;2022-11-15T00:01:14;8.10;99.90
15288;DHT22;7745;48.708;9.026;2022-11-15T00:03:54;8.00;99.90
15288;DHT22;7745;48.708;9.026;2022-11-15T00:06:25;8.00;99.90
15288;DHT22;7745;48.708;9.026;2022-11-15T00:09:00;8.00;99.90
15288;DHT22;7745;48.708;9.026;2022-11-15T00:11:34;8.30;99.90
15288;DHT22;7745;48.708;9.026;2022-11-15T00:14:08;8.00;99.90
15288;DHT22;7745;48.708;9.026;2022-11-15T00:16:45;8.00;99.90
15288;DHT22;7745;48.708;9.026;2022-11-15T00:19:18;8.10;99.90
15288;DHT22;7745;48.708;9.026;2022-11-15T00:21:48;8.10;99.90
15288;DHT22;7745;48.708;9.026;2022-11-15T00:24:17;8.00;99.90
15288;DHT22;7745;48.708;9.026;2022-11-15T00:26:46;7.90;99.90
15288;DHT22;7745;48.708;9.026;2022-11-15T00:29:22;8.00;99.90
15288;DHT22;7745;48.708;9.026;2022-11-15T00:31:58;7.90;99.90
15288;DHT22;7745;48.708;9.026;2022-11-15T00:34:31;8.10;99.90
15288;DHT22;7745;48.708;9.026;2022-11-15T00:37:07;7.80;99.90
15288;DHT22;7745;48.708;9.026;2022-11-15T00:39:38;8.10;99.90
15288;DHT22;7745;48.708;9.026;2022-11-15T00:42:13;7.70;99.90
15288;DHT22;7745;48.708;9.026;2022-11-15T00:45:03;7.70;99.90
15288;DHT22;7745;48.708;9.026;2022-11-15T00:47:35;7.60;99.90
15288;DHT22;7745;48.708;9.026;2022-11-15T00:50:08;7.50;99.90
15288;DHT22;7745;48.708;9.026;2022-11-15T00:52:49;7.40;99.90
15288;DHT22;7745;48.708;9.026;2022-11-15T00:55:35;7.30;99.90
15288;DHT22;7745;48.708;9.026;2022-11-15T00:58:12;7.50;99.90
15288;DHT22;7745;48.708;9.026;2022-11-15T01:00:50;7.20;99.90
15288;DHT22;7745;48.708;9.026;2022-11-15T01:03:27;7.10;99.90
15288;DHT22;7745;48.708;9.026;2022-11-15T01:06:02;7.00;99.90
15288;DHT22;7745;48.708;9.026;2022-11-15T01:08:38;7.10;99.90
15288;DHT22;7745;48.708;9.026;2022-11-15T01:11:19;7.10;99.90
15288;DHT22;7745;48.708;9.026;2022-11-15T01:13:51;7.00;99.90
15288;DHT22;7745;48.708;9.026;2022-11-15T01:16:21;7.10;99.90
15288;DHT22;7745;48.708;9.026;2022-11-15T01:18:55;7.00;99.90
15288;DHT22;7745;48.708;9.026;2022-11-15T01:21:33;7.10;99.90
15288;DHT22;7745;48.708;9.026;2022-11-15T01:24:03;7.20;99.90
15288;DHT22;7745;48.708;9.026;2022-11-15T01:26:40;7.20;99.90
15288;DHT22;7745;48.708;9.026;2022-11-15T01:29:16;7.20;99.90
15288;DHT22;7745;48.708;9.026;2022-11-15T01:31:58;7.20;99.90
15288;DHT22;7745;48.708;9.026;2022-11-15T01:34:28;7.20;99.90
15288;DHT22;7745;48.708;9.026;2022-11-15T01:37:08;7.30;99.90
15288;DHT22;7745;48.708;9.026;2022-11-15T01:39:38;7.40;99.90
15288;DHT22;7745;48.708;9.026;2022-11-15T01:42:11;7.10;99.90
15288;DHT22;7745;48.708;9.026;2022-11-15T01:44:45;7.80;99.90
15288;DHT22;7745;48.708;9.026;2022-11-15T01:47:22;7.30;99.90
15288;DHT22;7745;48.708;9.026;2022-11-15T01:50:12;7.30;99.90
15288;DHT22;7745;48.708;9.026;2022-11-15T01:52:52;7.20;99.90
15288;DHT22;7745;48.708;9.026;2022-11-15T01:55:35;7.20;99.90
15288;DHT22;7745;48.708;9.026;2022-11-15T01:58:07;7.10;99.90
15288;DHT22;7745;48.708;9.026;2022-11-15T02:00:40;7.20;99.90
15288;DHT22;7745;48.708;9.026;2022-11-15T02:03:15;7.10;99.90
15288;DHT22;7745;48.708;9.026;2022-11-15T02:06:02;7.10;99.90
15288;DHT22;7745;48.708;9.026;2022-11-15T02:08:36;7.30;99.90
15288;DHT22;7745;48.708;9.026;2022-11-15T02:11:11;7.10;99.90
15288;DHT22;7745;48.708;9.026;2022-11-15T02:13:40;7.10;99.90
15288;DHT22;7745;48.708;9.026;2022-11-15T02:16:25;7.10;99.90
15288;DHT22;7745;48.708;9.026;2022-11-15T02:19:05;7.30;99.90
15288;DHT22;7745;48.708;9.026;2022-11-15T02:21:43;7.20;99.90
15288;DHT22;7745;48.708;9.026;2022-11-15T02:24:58;7.10;99.90
15288;DHT22;7745;48.708;9.026;2022-11-15T02:27:58;7.20;99.90
15288;DHT22;7745;48.708;9.026;2022-11-15T02:30:37;7.10;99.90
15288;DHT22;7745;48.708;9.026;2022-11-15T02:33:15;7.20;99.90
15288;DHT22;7745;48.708;9.026;2022-11-15T02:36:00;7.30;99.90
15288;DHT22;7745;48.708;9.026;2022-11-15T02:38:34;7.00;99.90
15288;DHT22;7745;48.708;9.026;2022-11-15T02:41:11;6.90;99.90
15288;DHT22;7745;48.708;9.026;2022-11-15T02:43:46;7.20;99.90
15288;DHT22;7745;48.708;9.026;2022-11-15T02:46:39;7.00;99.90
15288;DHT22;7745;48.708;9.026;2022-11-15T02:49:31;6.70;99.90
15288;DHT22;7745;48.708;9.026;2022-11-15T02:52:14;6.90;99.90
15288;DHT22;7745;48.708;9.026;2022-11-15T02:54:53;6.70;99.90
15288;DHT22;7745;48.708;9.026;2022-11-15T02:57:35;6.70;99.90
15288;DHT22;7745;48.708;9.026;2022-11-15T03:00:13;6.60;99.90
15288;DHT22;7745;48.708;9.026;2022-11-15T03:03:04;6.20;99.90
15288;DHT22;7745;48.708;9.026;2022-11-15T03:05:41;6.50;99.90
15288;DHT22;7745;48.708;9.026;2022-11-15T03:08:23;6.30;99.90
15288;DHT22;7745;48.708;9.026;2022-11-15T03:11:00;6.50;99.90
15288;DHT22;7745;48.708;9.026;2022-11-15T03:13:40;6.40;99.90
15288;DHT22;7745;48.708;9.026;2022-11-15T03:16:28;6.50;99.90
15288;DHT22;7745;48.708;9.026;2022-11-15T03:19:01;6.50;99.90
15288;DHT22;7745;48.708;9.026;2022-11-15T03:21:37;6.80;99.90
15288;DHT22;7745;48.708;9.026;2022-11-15T03:24:14;6.50;99.90
15288;DHT22;7745;48.708;9.026;2022-11-15T03:26:47;6.60;99.90
15288;DHT22;7745;48.708;9.026;2022-11-15T03:29:18;6.50;99.90
15288;DHT22;7745;48.708;9.026;2022-11-15T03:31:53;6.50;99.90
15288;DHT22;7745;48.708;9.026;2022-11-15T03:34:28;6.50;99.90
15288;DHT22;7745;48.708;9.026;2022-11-15T03:36:59;6.50;99.90
15288;DHT22;7745;48.708;9.026;2022-11-15T03:39:40;6.50;99.90
15288;DHT22;7745;48.708;9.026;2022-11-15T03:42:20;6.50;99.90
15288;DHT22;7745;48.708;9.026;2022-11-15T03:44:58;6.50;99.90
15288;DHT22;7745;48.708;9.026;2022-11-15T03:47:38;6.50;99.90
15288;DHT22;7745;48.708;9.026;2022-11-15T03:50:12;6.50;99.90
15288;DHT22;7745;48.708;9.026;2022-11-15T03:52:44;6.50;99.90
15288;DHT22;7745;48.708;9.026;2022-11-15T03:55:38;6.50;99.90
15288;DHT22;7745;48.708;9.026;2022-11-15T03:58:06;6.50;99.90
15288;DHT22;7745;48.708;9.026;2022-11-15T04:00:37;6.50;99.90
15288;DHT22;7745;48.708;9.026;2022-11-15T04:03:07;6.50;99.90
15288;DHT22;7745;48.708;9.026;2022-11-15T04:05:42;6.40;99.90
15288;DHT22;7745;48.708;9.026;2022-11-15T04:08:16;6.60;99.90
15288;DHT22;7745;48.708;9.026;2022-11-15T04:10:51;6.50;99.90
15288;DHT22;7745;48.708;9.026;2022-11-15T04:13:32;6.70;99.90
15288;DHT22;7745;48.708;9.026;2022-11-15T04:16:04;6.60;99.90
15288;DHT22;7745;48.708;9.026;2022-11-15T04:18:44;6.60;99.90
15288;DHT22;7745;48.708;9.026;2022-11-15T04:21:32;6.30;99.90
15288;DHT22;7745;48.708;9.026;2022-11-15T04:24:16;6.60;99.90
15288;DHT22;7745;48.708;9.026;2022-11-15T04:26:53;6.70;99.90
15288;DHT22;7745;48.708;9.026;2022-11-15T04:29:22;6.60;99.90
15288;DHT22;7745;48.708;9.026;2022-11-15T04:32:07;6.60;99.90
15288;DHT22;7745;48.708;9.026;2022-11-15T04:34:40;6.60;99.90
15288;DHT22;7745;48.708;9.026;2022-11-15T04:37:10;6.70;99.90
15288;DHT22;7745;48.708;9.026;2022-11-15T04:39:44;6.70;99.90
15288;DHT22;7745;48.708;9.026;2022-11-15T04:42:17;6.70;99.90
15288;DHT22;7745;48.708;9.026;2022-11-15T04:44:52;6.90;99.90
15288;DHT22;7745;48.708;9.026;2022-11-15T04:47:24;6.60;99.90
15288;DHT22;7745;48.708;9.026;2022-11-15T04:49:57;6.70;99.90
15288;DHT22;7745;48.708;9.026;2022-11-15T04:52:26;6.60;99.90
15288;DHT22;7745;48.708;9.026;2022-11-15T04:54:59;6.60;99.90
15288;DHT22;7745;48.708;9.026;2022-11-15T04:57:29;6.60;99.90
15288;DHT22;7745;48.708;9.026;2022-11-15T04:59:58;6.60;99.90
15288;DHT22;7745;48.708;9.026;2022-11-15T05:02:27;7.00;99.90
15288;DHT22;7745;48.708;9.026;2022-11-15T05:05:19;6.80;99.90
15288;DHT22;7745;48.708;9.026;2022-11-15T05:07:54;6.60;99.90
15288;DHT22;7745;48.708;9.026;2022-11-15T05:10:29;6.50;99.90
15288;DHT22;7745;48.708;9.026;2022-11-15T05:13:09;6.40;99.90
15288;DHT22;7745;48.708;9.026;2022-11-15T05:15:46;6.40;99.90
15288;DHT22;7745;48.708;9.026;2022-11-15T05:18:16;6.60;99.90
15288;DHT22;7745;48.708;9.026;2022-11-15T05:20:48;6.40;99.90
15288;DHT22;7745;48.708;9.026;2022-11-15T05:23:19;6.60;99.90
15288;DHT22;7745;48.708;9.026;2022-11-15T05:25:53;6.70;99.90
15288;DHT22;7745;48.708;9.026;2022-11-15T05:28:28;6.50;99.90
15288;DHT22;7745;48.708;9.026;2022-11-15T05:31:02;6.50;99.90
15288;DHT22;7745;48.708;9.026;2022-11-15T05:33:35;6.50;99.90
15288;DHT22;7745;48.708;9.026;2022-11-15T05:36:06;6.50;99.90
15288;DHT22;7745;48.708;9.026;2022-11-15T05:38:35;6.50;99.90
15288;DHT22;7745;48.708;9.026;2022-11-15T05:41:09;6.50;99.90
15288;DHT22;7745;48.708;9.026;2022-11-15T05:43:37;6.50;99.90
15288;DHT22;7745;48.708;9.026;2022-11-15T05:46:11;6.90;99.90
15288;DHT22;7745;48.708;9.026;2022-11-15T05:48:47;6.60;99.90
15288;DHT22;7745;48.708;9.026;2022-11-15T05:51:30;6.90;99.90
15288;DHT22;7745;48.708;9.026;2022-11-15T05:54:02;6.60;99.90
15288;DHT22;7745;48.708;9.026;2022-11-15T05:56:31;6.40;99.90
15288;DHT22;7745;48.708;9.026;2022-11-15T05:59:03;6.40;99.90
15288;DHT22;7745;48.708;9.026;2022-11-15T06:01:35;6.40;99.90
15288;DHT22;7745;48.708;9.026;2022-11-15T06:04:31;6.40;99.90
15288;DHT22;7745;48.708;9.026;2022-11-15T06:07:02;6.60;99.90
15288;DHT22;7745;48.708;9.026;2022-11-15T06:09:40;6.40;99.90
15288;DHT22;7745;48.708;9.026;2022-11-15T06:12:10;6.30;99.90
15288;DHT22;7745;48.708;9.026;2022-11-15T06:14:40;6.40;99.90
15288;DHT22;7745;48.708;9.026;2022-11-15T06:17:07;6.10;99.90
15288;DHT22;7745;48.708;9.026;2022-11-15T06:19:35;6.20;99.90
15288;DHT22;7745;48.708;9.026;2022-11-15T06:22:02;6.20;99.90
15288;DHT22;7745;48.708;9.026;2022-11-15T06:24:28;6.20;99.90
15288;DHT22;7745;48.708;9.026;2022-11-15T06:26:57;6.20;99.90
15288;DHT22;7745;48.708;9.026;2022-11-15T06:29:27;6.60;99.90
15288;DHT22;7745;48.708;9.026;2022-11-15T06:31:57;6.30;99.90
15288;DHT22;7745;48.708;9.026;2022-11-15T06:34:26;6.30;99.90
15288;DHT22;7745;48.708;9.026;2022-11-15T06:37:08;6.20;99.90
15288;DHT22;7745;48.708;9.026;2022-11-15T06:39:42;6.10;99.90
15288;DHT22;7745;48.708;9.026;2022-11-15T06:42:13;6.20;99.90
15288;DHT22;7745;48.708;9.026;2022-11-15T06:44:43;6.20;99.90
15288;DHT22;7745;48.708;9.026;2022-11-15T06:47:25;6.20;99.90
15288;DHT22;7745;48.708;9.026;2022-11-15T06:50:10;6.20;99.90
15288;DHT22;7745;48.708;9.026;2022-11-15T06:52:47;6.60;99.90
15288;DHT22;7745;48.708;9.026;2022-11-15T06:55:27;6.50;99.90
15288;DHT22;7745;48.708;9.026;2022-11-15T07:04:11;6.60;99.90
15288;DHT22;7745;48.708;9.026;2022-11-15T07:06:38;6.70;99.90
15288;DHT22;7745;48.708;9.026;2022-11-15T07:09:14;6.90;99.90
15288;DHT22;7745;48.708;9.026;2022-11-15T07:11:43;6.70;99.90
15288;DHT22;7745;48.708;9.026;2022-11-15T07:17:08;6.90;99.90
15288;DHT22;7745;48.708;9.026;2022-11-15T07:19:37;7.00;99.90
15288;DHT22;7745;48.708;9.026;2022-11-15T07:22:10;7.40;99.90
15288;DHT22;7745;48.708;9.026;2022-11-15T07:24:46;7.20;99.90
15288;DHT22;7745;48.708;9.026;2022-11-15T07:27:16;7.50;99.90
15288;DHT22;7745;48.708;9.026;2022-11-15T07:29:44;7.30;99.90
15288;DHT22;7745;48.708;9.026;2022-11-15T07:32:17;7.50;99.90
15288;DHT22;7745;48.708;9.026;2022-11-15T07:34:49;7.50;99.90
15288;DHT22;7745;48.708;9.026;2022-11-15T07:37:16;7.70;99.90
15288;DHT22;7745;48.708;9.026;2022-11-15T07:39:49;7.80;99.90
15288;DHT22;7745;48.708;9.026;2022-11-15T07:42:23;7.90;99.90
15288;DHT22;7745;48.708;9.026;2022-11-15T07:45:20;8.10;99.90
15288;DHT22;7745;48.708;9.026;2022-11-15T07:47:54;8.30;99.90
15288;DHT22;7745;48.708;9.026;2022-11-15T07:50:29;8.60;99.90
15288;DHT22;7745;48.708;9.026;2022-11-15T07:53:07;8.80;99.90
15288;DHT22;7745;48.708;9.026;2022-11-15T07:55:40;8.70;99.90
15288;DHT22;7745;48.708;9.026;2022-11-15T07:58:14;8.80;99.90
15288;DHT22;7745;48.708;9.026;2022-11-15T08:00:50;8.90;99.90
15288;DHT22;7745;48.708;9.026;2022-11-15T08:03:49;9.00;99.90
15288;DHT22;7745;48.708;9.026;2022-11-15T08:06:39;8.90;99.90
15288;DHT22;7745;48.708;9.026;2022-11-15T08:09:11;9.00;99.90
15288;DHT22;7745;48.708;9.026;2022-11-15T08:12:00;9.10;99.90
15288;DHT22;7745;48.708;9.026;2022-11-15T08:14:34;9.10;99.90
15288;DHT22;7745;48.708;9.026;2022-11-15T08:17:09;9.00;99.90
15288;DHT22;7745;48.708;9.026;2022-11-15T08:19:40;9.20;99.90
15288;DHT22;7745;48.708;9.026;2022-11-15T08:22:13;9.20;99.90
15288;DHT22;7745;48.708;9.026;2022-11-15T08:24:46;9.40;99.90
15288;DHT22;7745;48.708;9.026;2022-11-15T08:27:25;9.40;99.90
15288;DHT22;7745;48.708;9.026;2022-11-15T08:29:55;9.50;99.90
15288;DHT22;7745;48.708;9.026;2022-11-15T08:32:22;9.60;99.90
15288;DHT22;7745;48.708;9.026;2022-11-15T08:34:51;9.80;99.90
15288;DHT22;7745;48.708;9.026;2022-11-15T08:37:25;10.00;99.90
15288;DHT22;7745;48.708;9.026;2022-11-15T08:39:55;9.90;99.90
15288;DHT22;7745;48.708;9.026;2022-11-15T08:42:33;10.10;99.90
15288;DHT22;7745;48.708;9.026;2022-11-15T08:45:09;10.20;99.90
15288;DHT22;7745;48.708;9.026;2022-11-15T08:47:39;10.30;99.90
15288;DHT22;7745;48.708;9.026;2022-11-15T08:50:07;10.80;99.90
15288;DHT22;7745;48.708;9.026;2022-11-15T08:52:35;10.50;99.90
15288;DHT22;7745;48.708;9.026;2022-11-15T08:55:02;10.70;99.90
15288;DHT22;7745;48.708;9.026;2022-11-15T08:57:29;10.70;99.90
15288;DHT22;7745;48.708;9.026;2022-11-15T08:59:56;10.80;99.90
15288;DHT22;7745;48.708;9.026;2022-11-15T09:02:23;10.90;99.90
15288;DHT22;7745;48.708;9.026;2022-11-15T09:04:50;10.90;99.90
15288;DHT22;7745;48.708;9.026;2022-11-15T09:07:17;11.00;99.90
15288;DHT22;7745;48.708;9.026;2022-11-15T09:09:45;11.10;99.90
15288;DHT22;7745;48.708;9.026;2022-11-15T09:12:12;11.20;99.90
15288;DHT22;7745;48.708;9.026;2022-11-15T09:14:39;11.30;99.90
15288;DHT22;7745;48.708;9.026;2022-11-15T09:17:07;11.30;99.90
15288;DHT22;7745;48.708;9.026;2022-11-15T09:19:34;11.30;99.90
15288;DHT22;7745;48.708;9.026;2022-11-15T09:22:05;11.40;99.90
15288;DHT22;7745;48.708;9.026;2022-11-15T09:24:32;11.50;99.90
15288;DHT22;7745;48.708;9.026;2022-11-15T09:27:00;11.40;99.90
15288;DHT22;7745;48.708;9.026;2022-11-15T09:29:27;11.50;99.90
15288;DHT22;7745;48.708;9.026;2022-11-15T09:31:54;11.60;99.90
15288;DHT22;7745;48.708;9.026;2022-11-15T09:34:21;11.60;99.90
15288;DHT22;7745;48.708;9.026;2022-11-15T09:36:48;11.70;99.90
15288;DHT22;7745;48.708;9.026;2022-11-15T09:39:15;11.70;99.90
15288;DHT22;7745;48.708;9.026;2022-11-15T09:42:08;11.80;99.90
15288;DHT22;7745;48.708;9.026;2022-11-15T09:44:47;11.70;99.90
15288;DHT22;7745;48.708;9.026;2022-11-15T09:47:44;11.80;99.90
15288;DHT22;7745;48.708;9.026;2022-11-15T09:50:15;11.80;99.90
15288;DHT22;7745;48.708;9.026;2022-11-15T09:52:44;11.90;99.90
15288;DHT22;7745;48.708;9.026;2022-11-15T09:55:13;11.90;99.90
15288;DHT22;7745;48.708;9.026;2022-11-15T09:57:53;12.00;99.90
15288;DHT22;7745;48.708;9.026;2022-11-15T10:00:24;12.00;99.90
15288;DHT22;7745;48.708;9.026;2022-11-15T10:03:11;12.00;99.90
15288;DHT22;7745;48.708;9.026;2022-11-15T10:05:41;12.10;99.90
15288;DHT22;7745;48.708;9.026;2022-11-15T10:08:26;12.30;99.90
15288;DHT22;7745;48.708;9.026;2022-11-15T10:10:57;12.10;99.90
15288;DHT22;7745;48.708;9.026;2022-11-15T10:13:30;12.20;99.90
15288;DHT22;7745;48.708;9.026;2022-11-15T10:16:06;12.20;99.90
15288;DHT22;7745;48.708;9.026;2022-11-15T10:18:48;12.30;99.90
15288;DHT22;7745;48.708;9.026;2022-11-15T10:21:54;12.40;99.90
15288;DHT22;7745;48.708;9.026;2022-11-15T10:24:34;12.40;99.90
15288;DHT22;7745;48.708;9.026;2022-11-15T10:27:07;12.50;99.90
15288;DHT22;7745;48.708;9.026;2022-11-15T10:29:43;12.40;99.90
15288;DHT22;7745;48.708;9.026;2022-11-15T10:32:11;12.50;99.90
15288;DHT22;7745;48.708;9.026;2022-11-15T10:34:38;12.40;99.90
15288;DHT22;7745;48.708;9.026;2022-11-15T10:37:06;12.70;99.90
15288;DHT22;7745;48.708;9.026;2022-11-15T10:39:33;12.70;99.90
15288;DHT22;7745;48.708;9.026;2022-11-15T10:42:17;12.50;99.90
15288;DHT22;7745;48.708;9.026;2022-11-15T10:44:45;12.50;99.90
15288;DHT22;7745;48.708;9.026;2022-11-15T10:47:24;12.50;99.90
15288;DHT22;7745;48.708;9.026;2022-11-15T10:49:59;12.50;99.90
15288;DHT22;7745;48.708;9.026;2022-11-15T10:52:29;12.50;99.90
15288;DHT22;7745;48.708;9.026;2022-11-15T10:55:21;12.60;99.90
15288;DHT22;7745;48.708;9.026;2022-11-15T10:57:51;12.60;99.90
15288;DHT22;7745;48.708;9.026;2022-11-15T11:00:30;12.60;99.90
15288;DHT22;7745;48.708;9.026;2022-11-15T11:03:03;12.50;99.90
15288;DHT22;7745;48.708;9.026;2022-11-15T11:05:34;12.60;99.90
15288;DHT22;7745;48.708;9.026;2022-11-15T11:08:04;12.50;99.90
15288;DHT22;7745;48.708;9.026;2022-11-15T11:10:31;12.60;99.90
15288;DHT22;7745;48.708;9.026;2022-11-15T11:13:13;12.60;99.90
15288;DHT22;7745;48.708;9.026;2022-11-15T11:15:44;12.60;99.90
15288;DHT22;7745;48.708;9.026;2022-11-15T11:18:18;12.90;99.90
15288;DHT22;7745;48.708;9.026;2022-11-15T11:20:51;12.80;99.90
15288;DHT22;7745;48.708;9.026;2022-11-15T11:23:38;12.80;99.90
15288;DHT22;7745;48.708;9.026;2022-11-15T11:26:29;12.90;99.90
15288;DHT22;7745;48.708;9.026;2022-11-15T11:29:04;13.00;99.90
15288;DHT22;7745;48.708;9.026;2022-11-15T11:31:42;13.00;99.90
15288;DHT22;7745;48.708;9.026;2022-11-15T11:34:16;13.00;99.90
15288;DHT22;7745;48.708;9.026;2022-11-15T11:36:50;13.20;99.90
15288;DHT22;7745;48.708;9.026;2022-11-15T11:39:26;13.00;99.90
15288;DHT22;7745;48.708;9.026;2022-11-15T11:42:01;13.00;99.90
15288;DHT22;7745;48.708;9.026;2022-11-15T11:44:45;13.00;99.90
15288;DHT22;7745;48.708;9.026;2022-11-15T11:47:21;13.10;99.90
15288;DHT22;7745;48.708;9.026;2022-11-15T11:49:51;13.10;99.90
15288;DHT22;7745;48.708;9.026;2022-11-15T11:52:23;13.30;99.90
15288;DHT22;7745;48.708;9.026;2022-11-15T11:54:58;13.30;99.90
15288;DHT22;7745;48.708;9.026;2022-11-15T11:57:32;13.30;99.90
15288;DHT22;7745;48.708;9.026;2022-11-15T12:00:09;13.40;99.90
15288;DHT22;7745;48.708;9.026;2022-11-15T12:03:01;13.40;99.90
15288;DHT22;7745;48.708;9.026;2022-11-15T12:05:36;13.30;99.90
15288;DHT22;7745;48.708;9.026;2022-11-15T12:08:20;13.40;99.90
15288;DHT22;7745;48.708;9.026;2022-11-15T12:10:55;13.30;99.90
15288;DHT22;7745;48.708;9.026;2022-11-15T12:13:26;13.40;99.90
15288;DHT22;7745;48.708;9.026;2022-11-15T12:16:03;13.50;99.90
15288;DHT22;7745;48.708;9.026;2022-11-15T12:18:35;13.30;99.90
15288;DHT22;7745;48.708;9.026;2022-11-15T12:21:17;13.30;99.90
15288;DHT22;7745;48.708;9.026;2022-11-15T12:24:28;13.30;99.90
15288;DHT22;7745;48.708;9.026;2022-11-15T12:27:25;13.30;99.90
15288;DHT22;7745;48.708;9.026;2022-11-15T12:30:00;13.30;99.90
15288;DHT22;7745;48.708;9.026;2022-11-15T12:32:35;13.20;99.90
15288;DHT22;7745;48.708;9.026;2022-11-15T12:35:30;13.30;99.90
15288;DHT22;7745;48.708;9.026;2022-11-15T12:38:12;13.10;99.90
15288;DHT22;7745;48.708;9.026;2022-11-15T12:47:31;13.00;99.90
15288;DHT22;7745;48.708;9.026;2022-11-15T12:53:45;13.00;99.90
15288;DHT22;7745;48.708;9.026;2022-11-15T12:56:41;13.00;99.90
15288;DHT22;7745;48.708;9.026;2022-11-15T13:10:37;13.10;99.90
15288;DHT22;7745;48.708;9.026;2022-11-15T13:13:12;13.20;99.90
15288;DHT22;7745;48.708;9.026;2022-11-15T13:19:38;13.20;99.90
15288;DHT22;7745;48.708;9.026;2022-11-15T13:22:17;13.20;99.90
15288;DHT22;7745;48.708;9.026;2022-11-15T13:25:14;13.30;99.90
15288;DHT22;7745;48.708;9.026;2022-11-15T13:27:58;13.10;99.90
15288;DHT22;7745;48.708;9.026;2022-11-15T13:30:55;13.20;99.90
15288;DHT22;7745;48.708;9.026;2022-11-15T13:33:41;13.10;99.90
15288;DHT22;7745;48.708;9.026;2022-11-15T13:36:23;13.10;99.90
15288;DHT22;7745;48.708;9.026;2022-11-15T13:39:02;13.10;99.90
15288;DHT22;7745;48.708;9.026;2022-11-15T13:41:49;13.10;99.90
15288;DHT22;7745;48.708;9.026;2022-11-15T13:44:31;13.00;99.90
15288;DHT22;7745;48.708;9.026;2022-11-15T13:47:14;13.00;99.90
15288;DHT22;7745;48.708;9.026;2022-11-15T13:53:12;12.90;99.90
15288;DHT22;7745;48.708;9.026;2022-11-15T13:55:58;12.80;99.90
15288;DHT22;7745;48.708;9.026;2022-11-15T13:58:42;12.80;99.90
15288;DHT22;7745;48.708;9.026;2022-11-15T14:01:26;12.70;99.90
15288;DHT22;7745;48.708;9.026;2022-11-15T14:04:29;12.60;99.90
15288;DHT22;7745;48.708;9.026;2022-11-15T14:07:16;12.60;99.90
15288;DHT22;7745;48.708;9.026;2022-11-15T14:10:29;12.60;99.90
15288;DHT22;7745;48.708;9.026;2022-11-15T14:14:11;12.50;99.90
15288;DHT22;7745;48.708;9.026;2022-11-15T14:16:41;12.50;99.90
15288;DHT22;7745;48.708;9.026;2022-11-15T14:19:38;12.60;99.90
15288;DHT22;7745;48.708;9.026;2022-11-15T14:22:14;12.70;99.90
15288;DHT22;7745;48.708;9.026;2022-11-15T14:25:07;12.80;99.90
15288;DHT22;7745;48.708;9.026;2022-11-15T14:28:13;12.60;99.90
15288;DHT22;7745;48.708;9.026;2022-11-15T14:30:49;12.60;99.90
15288;DHT22;7745;48.708;9.026;2022-11-15T14:33:28;12.60;99.90
15288;DHT22;7745;48.708;9.026;2022-11-15T14:36:11;12.40;99.90
15288;DHT22;7745;48.708;9.026;2022-11-15T14:38:49;12.40;99.90
15288;DHT22;7745;48.708;9.026;2022-11-15T14:41:19;12.50;99.90
15288;DHT22;7745;48.708;9.026;2022-11-15T14:43:48;12.50;99.90
15288;DHT22;7745;48.708;9.026;2022-11-15T14:46:15;12.40;99.90
15288;DHT22;7745;48.708;9.026;2022-11-15T14:48:42;12.30;99.90
15288;DHT22;7745;48.708;9.026;2022-11-15T14:51:12;12.30;99.90
15288;DHT22;7745;48.708;9.026;2022-11-15T14:53:39;12.30;99.90
15288;DHT22;7745;48.708;9.026;2022-11-15T14:56:06;12.40;99.90
15288;DHT22;7745;48.708;9.026;2022-11-15T14:58:33;12.20;99.90
15288;DHT22;7745;48.708;9.026;2022-11-15T15:01:02;12.20;99.90
15288;DHT22;7745;48.708;9.026;2022-11-15T15:03:30;12.20;99.90
15288;DHT22;7745;48.708;9.026;2022-11-15T15:05:57;12.20;99.90
15288;DHT22;7745;48.708;9.026;2022-11-15T15:08:23;12.20;99.90
15288;DHT22;7745;48.708;9.026;2022-11-15T15:10:51;12.20;99.90
15288;DHT22;7745;48.708;9.026;2022-11-15T15:13:19;12.10;99.90
15288;DHT22;7745;48.708;9.026;2022-11-15T15:15:47;12.10;99.90
15288;DHT22;7745;48.708;9.026;2022-11-15T15:18:15;12.10;99.90
15288;DHT22;7745;48.708;9.026;2022-11-15T15:20:43;12.00;99.90
15288;DHT22;7745;48.708;9.026;2022-11-15T15:23:16;12.00;99.90
15288;DHT22;7745;48.708;9.026;2022-11-15T15:25:44;11.90;99.90
15288;DHT22;7745;48.708;9.026;2022-11-15T15:28:12;11.90;99.90
15288;DHT22;7745;48.708;9.026;2022-11-15T15:30:38;11.90;99.90
15288;DHT22;7745;48.708;9.026;2022-11-15T15:33:06;11.90;99.90
15288;DHT22;7745;48.708;9.026;2022-11-15T15:35:48;11.80;99.90
15288;DHT22;7745;48.708;9.026;2022-11-15T15:38:20;11.80;99.90
15288;DHT22;7745;48.708;9.026;2022-11-15T15:40:54;11.80;99.90
15288;DHT22;7745;48.708;9.026;2022-11-15T15:43:21;11.70;99.90
15288;DHT22;7745;48.708;9.026;2022-11-15T15:45:48;11.70;99.90
15288;DHT22;7745;48.708;9.026;2022-11-15T15:48:16;11.70;99.90
15288;DHT22;7745;48.708;9.026;2022-11-15T15:50:53;11.70;99.90
15288;DHT22;7745;48.708;9.026;2022-11-15T15:53:20;11.60;99.90
15288;DHT22;7745;48.708;9.026;2022-11-15T15:55:47;11.60;99.90
15288;DHT22;7745;48.708;9.026;2022-11-15T15:58:14;11.60;99.90
15288;DHT22;7745;48.708;9.026;2022-11-15T16:00:41;11.50;99.90
15288;DHT22;7745;48.708;9.026;2022-11-15T16:03:08;11.50;99.90
15288;DHT22;7745;48.708;9.026;2022-11-15T16:05:35;11.50;99.90
15288;DHT22;7745;48.708;9.026;2022-11-15T16:08:03;11.50;99.90
15288;DHT22;7745;48.708;9.026;2022-11-15T16:10:32;11.50;99.90
15288;DHT22;7745;48.708;9.026;2022-11-15T16:12:59;11.40;99.90
15288;DHT22;7745;48.708;9.026;2022-11-15T16:15:27;11.40;99.90
15288;DHT22;7745;48.708;9.026;2022-11-15T16:17:57;11.40;99.90
15288;DHT22;7745;48.708;9.026;2022-11-15T16:20:35;11.40;99.90
15288;DHT22;7745;48.708;9.026;2022-11-15T16:23:07;11.40;99.90
15288;DHT22;7745;48.708;9.026;2022-11-15T16:25:37;11.40;99.90
15288;DHT22;7745;48.708;9.026;2022-11-15T16:28:05;11.40;99.90
15288;DHT22;7745;48.708;9.026;2022-11-15T16:30:32;11.40;99.90
15288;DHT22;7745;48.708;9.026;2022-11-15T16:32:59;11.40;99.90
15288;DHT22;7745;48.708;9.026;2022-11-15T16:35:25;11.40;99.90
15288;DHT22;7745;48.708;9.026;2022-11-15T16:37:52;11.40;99.90
15288;DHT22;7745;48.708;9.026;2022-11-15T16:40:26;11.40;99.90
15288;DHT22;7745;48.708;9.026;2022-11-15T16:42:55;11.50;99.90
15288;DHT22;7745;48.708;9.026;2022-11-15T16:45:22;11.30;99.90
15288;DHT22;7745;48.708;9.026;2022-11-15T16:47:49;11.30;99.90
15288;DHT22;7745;48.708;9.026;2022-11-15T16:50:21;11.30;99.90
15288;DHT22;7745;48.708;9.026;2022-11-15T16:52:50;11.30;99.90
15288;DHT22;7745;48.708;9.026;2022-11-15T16:55:18;11.30;99.90
15288;DHT22;7745;48.708;9.026;2022-11-15T16:57:46;11.30;99.90
15288;DHT22;7745;48.708;9.026;2022-11-15T17:00:14;11.30;99.90
15288;DHT22;7745;48.708;9.026;2022-11-15T17:02:42;11.30;99.90
15288;DHT22;7745;48.708;9.026;2022-11-15T17:05:10;11.30;99.90
15288;DHT22;7745;48.708;9.026;2022-11-15T17:07:37;11.30;99.90
15288;DHT22;7745;48.708;9.026;2022-11-15T17:10:04;11.20;99.90
15288;DHT22;7745;48.708;9.026;2022-11-15T17:12:32;11.20;99.90
15288;DHT22;7745;48.708;9.026;2022-11-15T17:15:02;11.30;99.90
15288;DHT22;7745;48.708;9.026;2022-11-15T17:17:30;11.20;99.90
15288;DHT22;7745;48.708;9.026;2022-11-15T17:19:57;11.30;99.90
15288;DHT22;7745;48.708;9.026;2022-11-15T17:22:25;11.20;99.90
15288;DHT22;7745;48.708;9.026;2022-11-15T17:24:52;11.10;99.90